Terminal Aerodrome Forecast
Issued by NWS

Home | Current Version | Previous Version | Text Only | Print | Product List | Glossary On
Versions: 1 2 3 4 5 6 7 8 9 10 11 12 13 14 15 16 17
000
FTPA31 PHFO 250703 AAA
TAFHTO
TAF AMD
PHTO 250703Z 2507/2606 23006KT P6SM SCT025 BKN040
      TEMPO 2507/2509 BKN025
     FM252000 09008KT P6SM SCT025 SCT050
     FM260400 VRB06KT P6SM FEW025 FEW040=

USA.gov is the U.S. government's official web portal to all federal, state and local government web resources and services.